Time;durP1;ratioP1;P1;durP2;ratioP2;P2;SDS_P1;SDS_P2;PMS_P1;PMS_P2;Temp;Humidity;BMP_temperature;BMP_pressure;BME280_temperature;BME280_humidity;BME280_pressure;Samples;Min_cycle;Max_cycle;Signal;HPM_P1;HPM_P2
2023/03/21 00:02:16;;;;;;;;;;;9.10;99.90;;;;;;5135553;27;19983;-69
2023/03/21 00:04:42;;;;;;;;;;;9.10;99.90;;;;;;5116834;27;20491;-68
2023/03/21 00:07:08;;;;;;;;;;;9.00;99.90;;;;;;5110734;27;19927;-68
2023/03/21 00:09:33;;;;;;;;;;;9.00;99.90;;;;;;5154459;27;19927;-68
2023/03/21 00:12:00;;;;;;;;;;;9.10;99.90;;;;;;5117313;27;19975;-68
2023/03/21 00:14:29;;;;;;;;;;;9.00;99.90;;;;;;5128563;27;20026;-68
2023/03/21 00:16:55;;;;;;;;;;;9.10;99.90;;;;;;5119335;27;20001;-69
2023/03/21 00:19:23;;;;;;;;;;;9.00;99.90;;;;;;5124578;27;19932;-69
2023/03/21 00:21:51;;;;;;;;;;;9.00;99.90;;;;;;5114217;27;20022;-69
2023/03/21 00:24:16;;;;;;;;;;;9.00;99.90;;;;;;5117914;27;19931;-69
2023/03/21 00:26:42;;;;;;;;;;;9.10;99.90;;;;;;5147635;27;19953;-70
2023/03/21 00:29:08;;;;;;;;;;;9.00;99.90;;;;;;5135380;27;20012;-69
2023/03/21 00:31:33;;;;;;;;;;;9.10;99.90;;;;;;5109045;27;19923;-69
2023/03/21 00:34:00;;;;;;;;;;;9.10;99.90;;;;;;5120350;27;19949;-69
2023/03/21 00:36:25;;;;;;;;;;;9.00;99.90;;;;;;5144192;27;19928;-69
2023/03/21 00:38:51;;;;;;;;;;;9.10;99.90;;;;;;5141678;27;19946;-69
2023/03/21 00:41:16;;;;;;;;;;;9.10;99.90;;;;;;5114097;27;19924;-69
2023/03/21 00:43:42;;;;;;;;;;;9.00;99.90;;;;;;5116078;27;20198;-69
2023/03/21 00:46:08;;;;;;;;;;;9.10;99.90;;;;;;5117535;27;19935;-69
2023/03/21 00:48:33;;;;;;;;;;;9.00;99.90;;;;;;5120008;27;19959;-69
2023/03/21 00:50:59;;;;;;;;;;;9.00;99.90;;;;;;5133576;27;19927;-70
2023/03/21 00:53:25;;;;;;;;;;;9.10;99.90;;;;;;5102397;27;19967;-70
2023/03/21 00:55:51;;;;;;;;;;;9.10;99.90;;;;;;5126702;27;19923;-70
2023/03/21 01:01:39;;;;;;;;;;;9.10;99.90;;;;;;5343286;22;19942;-70
2023/03/21 01:04:09;;;;;;;;;;;9.00;99.90;;;;;;5094959;28;19919;-69
2023/03/21 01:06:38;;;;;;;;;;;9.10;99.90;;;;;;5096628;28;19974;-69
2023/03/21 01:09:05;;;;;;;;;;;9.10;99.90;;;;;;5096747;28;20501;-69
2023/03/21 01:11:30;;;;;;;;;;;9.00;99.90;;;;;;5114597;28;19931;-69
2023/03/21 01:13:56;;;;;;;;;;;9.10;99.90;;;;;;5079938;28;20346;-68
2023/03/21 01:16:22;;;;;;;;;;;9.10;99.90;;;;;;5096754;28;19924;-69
2023/03/21 01:18:47;;;;;;;;;;;9.00;99.90;;;;;;5079350;28;19928;-75
2023/03/21 01:21:13;;;;;;;;;;;9.10;99.90;;;;;;5096970;28;19928;-67
2023/03/21 01:23:40;;;;;;;;;;;9.10;99.90;;;;;;5114756;28;19924;-67
2023/03/21 01:26:06;;;;;;;;;;;9.10;99.90;;;;;;5079553;28;19924;-68
2023/03/21 01:28:32;;;;;;;;;;;9.00;99.90;;;;;;5096278;28;20023;-68
2023/03/21 01:30:59;;;;;;;;;;;9.10;99.90;;;;;;5095790;28;19931;-68
2023/03/21 01:33:24;;;;;;;;;;;9.10;99.90;;;;;;5114609;28;20276;-68
2023/03/21 01:35:50;;;;;;;;;;;9.00;99.90;;;;;;5096031;28;19923;-68
2023/03/21 01:38:16;;;;;;;;;;;9.10;99.90;;;;;;5096510;28;19934;-68
2023/03/21 01:40:43;;;;;;;;;;;9.10;99.90;;;;;;5114455;28;20399;-68
2023/03/21 01:43:18;;;;;;;;;;;9.00;99.90;;;;;;5096068;28;20017;-69
2023/03/21 01:46:00;;;;;;;;;;;9.10;99.90;;;;;;5079325;28;19924;-68
2023/03/21 01:48:26;;;;;;;;;;;9.00;99.90;;;;;;5095871;28;19923;-68
2023/03/21 01:50:52;;;;;;;;;;;9.10;99.90;;;;;;5095627;28;19946;-69
2023/03/21 01:53:22;;;;;;;;;;;9.10;99.90;;;;;;5114143;28;20385;-68
2023/03/21 01:55:48;;;;;;;;;;;9.00;99.90;;;;;;5096250;28;19942;-68
2023/03/21 01:58:17;;;;;;;;;;;9.00;99.90;;;;;;5113728;28;19923;-69
2023/03/21 02:00:46;;;;;;;;;;;9.10;99.90;;;;;;5095464;28;19977;-69
2023/03/21 02:03:15;;;;;;;;;;;9.10;99.90;;;;;;5113583;28;19965;-69
2023/03/21 02:05:50;;;;;;;;;;;9.10;99.90;;;;;;5062706;28;19924;-68
2023/03/21 02:08:16;;;;;;;;;;;9.00;99.90;;;;;;5094576;28;19928;-69
2023/03/21 02:10:42;;;;;;;;;;;9.10;99.90;;;;;;5113535;28;20284;-68
2023/03/21 02:13:08;;;;;;;;;;;9.10;99.90;;;;;;5078546;28;19927;-68
2023/03/21 02:15:39;;;;;;;;;;;9.10;99.90;;;;;;5095916;28;20018;-67
2023/03/21 02:18:07;;;;;;;;;;;9.10;99.90;;;;;;5113367;28;20329;-68
2023/03/21 02:20:35;;;;;;;;;;;9.10;99.90;;;;;;5095720;28;19931;-67
2023/03/21 02:23:01;;;;;;;;;;;9.10;99.90;;;;;;5094968;28;19924;-67
2023/03/21 02:25:36;;;;;;;;;;;9.10;99.90;;;;;;5113575;28;19931;-67
2023/03/21 02:28:10;;;;;;;;;;;9.10;99.90;;;;;;5113319;28;19930;-70
2023/03/21 02:30:39;;;;;;;;;;;9.00;99.90;;;;;;5095457;28;19923;-68
2023/03/21 02:33:28;;;;;;;;;;;9.10;99.90;;;;;;5095113;28;19923;-68
2023/03/21 02:36:02;;;;;;;;;;;9.10;99.90;;;;;;5113379;28;19924;-68
2023/03/21 02:38:47;;;;;;;;;;;9.10;99.90;;;;;;5113596;28;19927;-69
2023/03/21 02:41:15;;;;;;;;;;;9.10;99.90;;;;;;5077989;28;19935;-68
2023/03/21 02:43:46;;;;;;;;;;;9.10;99.90;;;;;;5113216;28;19927;-68
2023/03/21 02:46:14;;;;;;;;;;;9.10;99.90;;;;;;5094778;28;19930;-67
2023/03/21 02:48:45;;;;;;;;;;;9.10;99.90;;;;;;5113115;28;20001;-68
2023/03/21 02:51:14;;;;;;;;;;;9.10;99.90;;;;;;5094600;28;19923;-68
2023/03/21 02:53:42;;;;;;;;;;;9.10;99.90;;;;;;5094924;28;19924;-68
2023/03/21 02:56:09;;;;;;;;;;;9.10;99.90;;;;;;5112572;28;19935;-68
2023/03/21 02:58:36;;;;;;;;;;;9.10;99.90;;;;;;5094872;28;19924;-68
2023/03/21 03:01:02;;;;;;;;;;;9.10;99.90;;;;;;5094272;28;19969;-71
2023/03/21 03:03:28;;;;;;;;;;;9.10;99.90;;;;;;5112776;28;20018;-67
2023/03/21 03:05:55;;;;;;;;;;;9.10;99.90;;;;;;5112861;28;20380;-68
2023/03/21 03:08:27;;;;;;;;;;;9.10;99.90;;;;;;5094552;28;20497;-68
2023/03/21 03:11:08;;;;;;;;;;;9.10;99.90;;;;;;5112607;28;19924;-68
2023/03/21 03:13:33;;;;;;;;;;;9.20;99.90;;;;;;5112891;28;19931;-68
2023/03/21 03:16:06;;;;;;;;;;;9.10;99.90;;;;;;5094827;28;19924;-68
2023/03/21 03:18:47;;;;;;;;;;;9.10;99.90;;;;;;5094943;28;20399;-69
2023/03/21 03:21:18;;;;;;;;;;;9.20;99.90;;;;;;5112300;28;19928;-70
2023/03/21 03:23:49;;;;;;;;;;;9.20;99.90;;;;;;5112514;28;20397;-69
2023/03/21 03:26:17;;;;;;;;;;;9.10;99.90;;;;;;5094295;28;19975;-68
2023/03/21 03:28:46;;;;;;;;;;;9.10;99.90;;;;;;5112670;28;19947;-68
2023/03/21 03:31:13;;;;;;;;;;;9.10;99.90;;;;;;5094243;28;19931;-69
2023/03/21 03:33:42;;;;;;;;;;;9.20;99.90;;;;;;5077744;28;19924;-68
2023/03/21 03:36:10;;;;;;;;;;;9.20;99.90;;;;;;5111946;28;19927;-68
2023/03/21 03:38:37;;;;;;;;;;;9.10;99.90;;;;;;5094342;28;20341;-69
2023/03/21 03:41:09;;;;;;;;;;;9.20;99.90;;;;;;5112338;28;19925;-68
2023/03/21 03:43:49;;;;;;;;;;;9.20;99.90;;;;;;5094165;28;20277;-68
2023/03/21 03:46:24;;;;;;;;;;;9.20;99.90;;;;;;5112040;28;19924;-69
2023/03/21 03:48:56;;;;;;;;;;;9.10;99.90;;;;;;5112499;28;20288;-68
2023/03/21 03:51:26;;;;;;;;;;;9.20;99.90;;;;;;5093430;28;19924;-68
2023/03/21 03:53:57;;;;;;;;;;;9.20;99.90;;;;;;5112228;28;19924;-67
2023/03/21 03:56:24;;;;;;;;;;;9.20;99.90;;;;;;5076976;28;19989;-69
2023/03/21 03:58:49;;;;;;;;;;;9.20;99.90;;;;;;5094397;28;20022;-68
2023/03/21 04:01:16;;;;;;;;;;;9.20;99.90;;;;;;5111675;28;20020;-68
2023/03/21 04:03:44;;;;;;;;;;;9.20;99.90;;;;;;5112168;28;20258;-68
2023/03/21 04:06:09;;;;;;;;;;;9.10;99.90;;;;;;5093556;28;19924;-73
2023/03/21 04:08:36;;;;;;;;;;;9.20;99.90;;;;;;5112262;28;19931;-68
2023/03/21 04:11:02;;;;;;;;;;;9.20;99.90;;;;;;5094334;28;19931;-68
2023/03/21 04:13:27;;;;;;;;;;;9.20;99.90;;;;;;5093962;28;20309;-69
2023/03/21 04:15:53;;;;;;;;;;;9.20;99.90;;;;;;5111872;28;19931;-68
2023/03/21 04:18:19;;;;;;;;;;;9.20;99.90;;;;;;5111700;28;20432;-69
2023/03/21 04:20:46;;;;;;;;;;;9.20;99.90;;;;;;5094208;28;19924;-69
2023/03/21 04:23:12;;;;;;;;;;;9.20;99.90;;;;;;5094003;28;19924;-74
2023/03/21 04:25:38;;;;;;;;;;;9.20;99.90;;;;;;5111853;28;19939;-69
2023/03/21 04:28:03;;;;;;;;;;;9.30;99.90;;;;;;5077186;28;19923;-68
2023/03/21 04:30:33;;;;;;;;;;;9.20;99.90;;;;;;5111641;28;20026;-67
2023/03/21 04:32:59;;;;;;;;;;;9.20;99.90;;;;;;5115095;28;20431;-69
2023/03/21 04:35:25;;;;;;;;;;;9.20;99.90;;;;;;5115366;28;19924;-68
2023/03/21 04:37:51;;;;;;;;;;;9.20;99.90;;;;;;5115432;28;20347;-70
2023/03/21 04:40:17;;;;;;;;;;;9.20;99.90;;;;;;5096990;28;19930;-69
2023/03/21 04:42:43;;;;;;;;;;;9.20;99.90;;;;;;5097501;28;19924;-69
2023/03/21 04:45:09;;;;;;;;;;;9.20;99.90;;;;;;5115486;28;20372;-68
2023/03/21 04:47:35;;;;;;;;;;;9.20;99.90;;;;;;5080274;28;19920;-68
2023/03/21 04:50:01;;;;;;;;;;;9.20;99.90;;;;;;5096735;28;19931;-67
2023/03/21 04:52:26;;;;;;;;;;;9.30;99.90;;;;;;5115052;28;19952;-67
2023/03/21 04:54:52;;;;;;;;;;;9.30;99.90;;;;;;5115208;28;20073;-68
2023/03/21 04:57:18;;;;;;;;;;;9.20;99.90;;;;;;5096636;28;19928;-73
2023/03/21 04:59:44;;;;;;;;;;;9.20;99.90;;;;;;5115072;28;19924;-69
2023/03/21 05:02:10;;;;;;;;;;;9.20;99.90;;;;;;5096733;28;19924;-67
2023/03/21 05:04:36;;;;;;;;;;;9.20;99.90;;;;;;5096587;28;20450;-69
2023/03/21 05:07:01;;;;;;;;;;;9.20;99.90;;;;;;5096797;28;19924;-68
2023/03/21 05:09:27;;;;;;;;;;;9.20;99.90;;;;;;5096524;28;20023;-69
2023/03/21 05:11:53;;;;;;;;;;;9.20;99.90;;;;;;5096882;28;20269;-69
2023/03/21 05:14:23;;;;;;;;;;;9.20;99.90;;;;;;5096806;28;19930;-73
2023/03/21 05:16:58;;;;;;;;;;;9.20;99.90;;;;;;5096684;28;19977;-69
2023/03/21 05:19:33;;;;;;;;;;;9.20;99.90;;;;;;5079512;28;19931;-69
2023/03/21 05:22:09;;;;;;;;;;;9.20;99.90;;;;;;5096796;28;20023;-70
2023/03/21 05:24:40;;;;;;;;;;;9.20;99.90;;;;;;5114128;28;19930;-69
2023/03/21 05:27:07;;;;;;;;;;;9.20;99.90;;;;;;5096187;28;19971;-69
2023/03/21 05:29:32;;;;;;;;;;;9.20;99.90;;;;;;5114069;28;19944;-70
2023/03/21 05:31:59;;;;;;;;;;;9.20;99.90;;;;;;5114504;28;19928;-70
2023/03/21 05:34:25;;;;;;;;;;;9.20;99.90;;;;;;5096169;28;20022;-70
2023/03/21 05:36:51;;;;;;;;;;;9.20;99.90;;;;;;5096332;28;19931;-70
2023/03/21 05:39:17;;;;;;;;;;;9.20;99.90;;;;;;5079310;28;19924;-70
2023/03/21 05:41:43;;;;;;;;;;;9.20;99.90;;;;;;5079166;28;19927;-70
2023/03/21 05:44:08;;;;;;;;;;;9.20;99.90;;;;;;5096096;28;20045;-70
2023/03/21 05:46:34;;;;;;;;;;;9.30;99.90;;;;;;5095819;28;19924;-71
2023/03/21 05:48:59;;;;;;;;;;;9.20;99.90;;;;;;5114177;28;19963;-70
2023/03/21 05:51:25;;;;;;;;;;;9.20;99.90;;;;;;5113280;28;19923;-72
2023/03/21 05:53:50;;;;;;;;;;;9.20;99.90;;;;;;5079337;28;19980;-69
2023/03/21 05:56:16;;;;;;;;;;;9.20;99.90;;;;;;5096154;28;19928;-69
2023/03/21 05:58:42;;;;;;;;;;;9.20;99.90;;;;;;5078536;28;19924;-70
2023/03/21 06:01:08;;;;;;;;;;;9.20;99.90;;;;;;5095366;28;19970;-70
2023/03/21 06:03:33;;;;;;;;;;;9.20;99.90;;;;;;5094734;28;19926;-69
2023/03/21 06:05:59;;;;;;;;;;;9.20;99.90;;;;;;5096047;28;19924;-70
2023/03/21 06:08:25;;;;;;;;;;;9.30;99.90;;;;;;5096116;28;20011;-75
2023/03/21 06:10:50;;;;;;;;;;;9.20;99.90;;;;;;5095734;28;20014;-70
2023/03/21 06:13:16;;;;;;;;;;;9.30;99.90;;;;;;5095975;28;19975;-70
2023/03/21 06:15:41;;;;;;;;;;;9.30;99.90;;;;;;5095590;28;19924;-69
2023/03/21 06:18:07;;;;;;;;;;;9.20;99.90;;;;;;5096053;28;20332;-69
2023/03/21 06:20:32;;;;;;;;;;;9.30;99.90;;;;;;5113537;28;19924;-69
2023/03/21 06:22:58;;;;;;;;;;;9.30;99.90;;;;;;5078540;28;19953;-69
2023/03/21 06:25:24;;;;;;;;;;;9.30;99.90;;;;;;5077805;28;19923;-69
2023/03/21 06:27:49;;;;;;;;;;;9.30;99.90;;;;;;5078267;28;19971;-71
2023/03/21 06:30:16;;;;;;;;;;;9.30;99.90;;;;;;5095582;28;20018;-70
2023/03/21 06:32:44;;;;;;;;;;;9.30;99.90;;;;;;5111954;28;20003;-70
2023/03/21 06:35:10;;;;;;;;;;;9.30;99.90;;;;;;5078648;28;19978;-70
2023/03/21 06:37:37;;;;;;;;;;;9.30;99.90;;;;;;5094998;28;19927;-69
2023/03/21 06:40:04;;;;;;;;;;;9.30;99.90;;;;;;5095290;28;19975;-70
2023/03/21 06:42:31;;;;;;;;;;;9.30;99.90;;;;;;5113681;28;19923;-75
2023/03/21 06:44:56;;;;;;;;;;;9.30;99.90;;;;;;5094443;28;20392;-70
2023/03/21 06:47:22;;;;;;;;;;;9.40;99.90;;;;;;5112599;28;20017;-70
2023/03/21 06:49:48;;;;;;;;;;;9.30;99.90;;;;;;5094766;28;19980;-68
2023/03/21 06:52:13;;;;;;;;;;;9.30;99.90;;;;;;5094802;28;19946;-71
2023/03/21 06:54:39;;;;;;;;;;;9.40;99.90;;;;;;5094122;28;19923;-70
2023/03/21 06:57:04;;;;;;;;;;;9.30;99.90;;;;;;5078112;28;19973;-69
2023/03/21 06:59:30;;;;;;;;;;;9.40;99.90;;;;;;5112876;28;20380;-68
2023/03/21 07:01:56;;;;;;;;;;;9.40;99.90;;;;;;5112008;28;19924;-69
2023/03/21 07:04:21;;;;;;;;;;;9.40;99.90;;;;;;5094272;28;19976;-68
2023/03/21 07:06:47;;;;;;;;;;;9.50;99.90;;;;;;5112548;28;19924;-70
2023/03/21 07:09:12;;;;;;;;;;;9.40;99.90;;;;;;5094586;28;19977;-71
2023/03/21 07:11:38;;;;;;;;;;;9.40;99.90;;;;;;5094512;28;19932;-70
2023/03/21 07:14:04;;;;;;;;;;;9.50;99.90;;;;;;5094951;28;19959;-70
2023/03/21 07:16:29;;;;;;;;;;;9.50;99.90;;;;;;5094441;28;19933;-70
2023/03/21 07:18:55;;;;;;;;;;;9.50;99.90;;;;;;5094391;28;20420;-70
2023/03/21 07:21:21;;;;;;;;;;;9.60;99.90;;;;;;5112624;28;19924;-71
2023/03/21 07:23:49;;;;;;;;;;;9.50;99.90;;;;;;5112249;28;20020;-71
2023/03/21 07:26:17;;;;;;;;;;;9.60;99.90;;;;;;5094748;28;20010;-72
2023/03/21 07:28:42;;;;;;;;;;;9.60;99.90;;;;;;5094107;28;20302;-69
2023/03/21 07:31:12;;;;;;;;;;;9.60;99.90;;;;;;5077395;28;19927;-69
2023/03/21 07:33:38;;;;;;;;;;;9.50;99.90;;;;;;5094341;28;20303;-75
2023/03/21 07:36:08;;;;;;;;;;;9.50;99.90;;;;;;5094166;28;19924;-69
2023/03/21 07:38:33;;;;;;;;;;;9.50;99.90;;;;;;5077753;28;20014;-69
2023/03/21 07:40:59;;;;;;;;;;;9.60;99.90;;;;;;5112131;28;20504;-70
2023/03/21 07:43:25;;;;;;;;;;;9.60;99.90;;;;;;5112498;28;20311;-69
2023/03/21 07:45:54;;;;;;;;;;;9.60;99.90;;;;;;5093931;28;19923;-69
2023/03/21 07:48:20;;;;;;;;;;;9.60;99.90;;;;;;5112095;28;20385;-69
2023/03/21 07:50:47;;;;;;;;;;;9.70;99.90;;;;;;5112112;28;19930;-68
2023/03/21 07:53:13;;;;;;;;;;;9.70;99.90;;;;;;5094489;28;19928;-70
2023/03/21 07:55:38;;;;;;;;;;;9.60;99.90;;;;;;5077050;28;19935;-72
2023/03/21 07:58:04;;;;;;;;;;;9.60;99.90;;;;;;5111979;28;20261;-70
2023/03/21 08:00:30;;;;;;;;;;;9.60;99.90;;;;;;5094508;28;19923;-72
2023/03/21 08:02:56;;;;;;;;;;;9.70;99.90;;;;;;5093703;28;20312;-71
2023/03/21 08:05:23;;;;;;;;;;;9.70;99.90;;;;;;5093818;28;19975;-71
2023/03/21 08:07:49;;;;;;;;;;;9.70;99.90;;;;;;5093805;28;19927;-70
2023/03/21 08:10:16;;;;;;;;;;;9.70;99.90;;;;;;5092438;28;19931;-73
2023/03/21 08:12:41;;;;;;;;;;;9.70;99.90;;;;;;5096115;28;19959;-71
2023/03/21 08:15:07;;;;;;;;;;;9.80;99.90;;;;;;5093655;28;19924;-70
2023/03/21 08:17:35;;;;;;;;;;;9.70;99.90;;;;;;5097666;28;19931;-71
2023/03/21 08:20:00;;;;;;;;;;;9.70;99.90;;;;;;5095122;28;19924;-70
2023/03/21 08:22:26;;;;;;;;;;;9.70;99.90;;;;;;5063411;28;20478;-70
2023/03/21 08:24:51;;;;;;;;;;;9.80;99.90;;;;;;5093974;28;19923;-71
2023/03/21 08:27:19;;;;;;;;;;;9.80;99.90;;;;;;5080923;28;19927;-73
2023/03/21 08:29:45;;;;;;;;;;;9.90;99.90;;;;;;5080273;28;19927;-74
2023/03/21 08:32:10;;;;;;;;;;;9.90;99.90;;;;;;5111970;28;20102;-75
2023/03/21 08:34:36;;;;;;;;;;;9.90;99.90;;;;;;5096725;28;20004;-70
2023/03/21 08:37:02;;;;;;;;;;;9.80;99.90;;;;;;5080417;28;19980;-69
2023/03/21 08:39:28;;;;;;;;;;;9.90;99.90;;;;;;5097420;28;19993;-70
2023/03/21 08:41:54;;;;;;;;;;;9.80;99.90;;;;;;5079869;28;20364;-69
2023/03/21 08:44:20;;;;;;;;;;;9.90;99.90;;;;;;5096884;28;20272;-72
2023/03/21 08:46:46;;;;;;;;;;;9.90;99.90;;;;;;5080451;28;19924;-75
2023/03/21 08:49:12;;;;;;;;;;;9.90;99.90;;;;;;5080395;28;20011;-70
2023/03/21 08:51:37;;;;;;;;;;;9.90;99.90;;;;;;5096891;28;19927;-71
2023/03/21 08:54:03;;;;;;;;;;;9.80;99.90;;;;;;5079988;28;19924;-69
2023/03/21 08:56:29;;;;;;;;;;;9.80;99.90;;;;;;5095853;28;19924;-70
2023/03/21 08:58:55;;;;;;;;;;;9.80;99.90;;;;;;5114632;28;20018;-70
2023/03/21 09:01:21;;;;;;;;;;;9.90;99.90;;;;;;5096602;28;19973;-71
2023/03/21 09:03:46;;;;;;;;;;;9.90;99.90;;;;;;5097167;28;19967;-71
2023/03/21 09:06:13;;;;;;;;;;;9.80;99.90;;;;;;5096551;28;19946;-71
2023/03/21 09:08:38;;;;;;;;;;;9.90;99.90;;;;;;5094674;28;20023;-70
2023/03/21 09:11:04;;;;;;;;;;;9.80;99.90;;;;;;5093901;28;20007;-71
2023/03/21 09:13:30;;;;;;;;;;;9.80;99.90;;;;;;5095985;28;20022;-71
2023/03/21 09:16:00;;;;;;;;;;;9.90;99.90;;;;;;5111331;28;19975;-70
2023/03/21 09:18:44;;;;;;;;;;;9.90;99.90;;;;;;5090161;28;19973;-71
2023/03/21 09:21:13;;;;;;;;;;;9.90;99.90;;;;;;5091472;28;19975;-70
2023/03/21 09:23:43;;;;;;;;;;;9.90;99.90;;;;;;5111309;28;19924;-75
2023/03/21 09:26:09;;;;;;;;;;;9.90;99.90;;;;;;5094957;28;19946;-69
2023/03/21 09:28:37;;;;;;;;;;;9.90;99.90;;;;;;5114760;28;19923;-69
2023/03/21 09:31:04;;;;;;;;;;;9.90;99.90;;;;;;5113892;28;19924;-69
2023/03/21 09:33:30;;;;;;;;;;;10.00;99.90;;;;;;5096359;28;20354;-67
2023/03/21 09:35:57;;;;;;;;;;;9.90;99.90;;;;;;5114040;28;19974;-68
2023/03/21 09:38:29;;;;;;;;;;;9.90;99.90;;;;;;5114547;28;19924;-69
2023/03/21 09:40:58;;;;;;;;;;;9.90;99.90;;;;;;5114137;28;20338;-74
2023/03/21 09:43:43;;;;;;;;;;;9.90;99.90;;;;;;5095959;28;19946;-70
2023/03/21 09:46:12;;;;;;;;;;;9.90;99.90;;;;;;5111837;28;19923;-69
2023/03/21 09:48:50;;;;;;;;;;;10.00;99.90;;;;;;5113360;28;19934;-69
2023/03/21 09:51:17;;;;;;;;;;;10.00;99.90;;;;;;5113078;28;20308;-69
2023/03/21 09:53:45;;;;;;;;;;;10.00;99.90;;;;;;5094366;28;19924;-69
2023/03/21 09:56:12;;;;;;;;;;;10.00;99.90;;;;;;5091584;28;19974;-70
2023/03/21 09:58:51;;;;;;;;;;;10.10;99.90;;;;;;5078734;28;19998;-69
2023/03/21 10:01:26;;;;;;;;;;;10.00;99.90;;;;;;5113317;28;19928;-70
2023/03/21 10:03:53;;;;;;;;;;;10.00;99.90;;;;;;5112252;28;19923;-69
2023/03/21 10:06:26;;;;;;;;;;;10.00;99.90;;;;;;5112405;28;19931;-68
2023/03/21 10:08:52;;;;;;;;;;;10.00;99.90;;;;;;5113970;28;19941;-67
2023/03/21 10:11:20;;;;;;;;;;;10.00;99.90;;;;;;5113189;28;20576;-66
2023/03/21 10:14:04;;;;;;;;;;;10.00;99.90;;;;;;5113313;28;20024;-68
2023/03/21 10:16:31;;;;;;;;;;;9.90;99.90;;;;;;5112521;28;20448;-69
2023/03/21 10:18:58;;;;;;;;;;;9.90;99.90;;;;;;5113113;28;20309;-72
2023/03/21 10:21:25;;;;;;;;;;;9.80;99.90;;;;;;5078214;28;19947;-68
2023/03/21 10:23:52;;;;;;;;;;;10.00;99.90;;;;;;5078245;28;19924;-68
2023/03/21 10:26:20;;;;;;;;;;;9.90;99.90;;;;;;5113105;28;19928;-68
2023/03/21 10:28:47;;;;;;;;;;;10.00;99.90;;;;;;5112695;28;20455;-67
2023/03/21 10:31:20;;;;;;;;;;;9.90;99.90;;;;;;5112700;28;19924;-68
2023/03/21 10:33:48;;;;;;;;;;;9.90;99.90;;;;;;5113292;28;20018;-67
2023/03/21 10:36:16;;;;;;;;;;;9.90;99.90;;;;;;5112756;28;19989;-68
2023/03/21 10:38:52;;;;;;;;;;;10.00;99.90;;;;;;5113443;28;19975;-68
2023/03/21 10:41:19;;;;;;;;;;;10.00;99.90;;;;;;5078237;28;19940;-67
2023/03/21 10:43:49;;;;;;;;;;;9.90;99.90;;;;;;5113062;28;19924;-67
2023/03/21 10:46:19;;;;;;;;;;;9.90;99.90;;;;;;5112801;28;19924;-68
2023/03/21 10:48:51;;;;;;;;;;;10.00;99.90;;;;;;5113132;28;19946;-68
2023/03/21 10:51:18;;;;;;;;;;;10.00;99.90;;;;;;5112268;28;20438;-68
2023/03/21 10:53:48;;;;;;;;;;;10.00;99.90;;;;;;5095059;28;20273;-69
2023/03/21 10:56:14;;;;;;;;;;;10.10;99.90;;;;;;5112661;28;19930;-69
2023/03/21 10:58:44;;;;;;;;;;;10.20;99.90;;;;;;5094318;28;19928;-70
2023/03/21 11:01:13;;;;;;;;;;;10.20;99.90;;;;;;5092792;28;19948;-69
2023/03/21 11:03:45;;;;;;;;;;;10.20;99.90;;;;;;5049225;28;19981;-68
2023/03/21 11:06:11;;;;;;;;;;;10.30;99.90;;;;;;5071058;28;19930;-70
2023/03/21 11:08:50;;;;;;;;;;;10.30;99.90;;;;;;5071075;28;19950;-69
2023/03/21 11:11:20;;;;;;;;;;;10.30;99.90;;;;;;5069394;28;20029;-70
2023/03/21 11:13:54;;;;;;;;;;;10.40;99.90;;;;;;5068892;28;20058;-70
2023/03/21 11:16:30;;;;;;;;;;;10.50;99.90;;;;;;5070623;28;20483;-68
2023/03/21 11:18:59;;;;;;;;;;;10.50;99.90;;;;;;5071174;28;19970;-70
2023/03/21 11:21:26;;;;;;;;;;;10.60;99.90;;;;;;5071022;28;19924;-70
2023/03/21 11:23:53;;;;;;;;;;;10.70;99.90;;;;;;5070898;28;19925;-69
2023/03/21 11:26:24;;;;;;;;;;;10.80;99.90;;;;;;5071742;28;19970;-69
2023/03/21 11:28:50;;;;;;;;;;;10.80;99.90;;;;;;5072278;28;19924;-70
2023/03/21 11:31:16;;;;;;;;;;;10.90;99.90;;;;;;5071715;28;19928;-70
2023/03/21 11:33:52;;;;;;;;;;;10.90;99.90;;;;;;5070762;28;19955;-69
2023/03/21 11:36:18;;;;;;;;;;;11.00;99.90;;;;;;5070598;28;19980;-68
2023/03/21 11:38:47;;;;;;;;;;;11.10;99.90;;;;;;5070909;28;19929;-70
2023/03/21 11:41:21;;;;;;;;;;;11.10;99.90;;;;;;5073802;28;19925;-67
2023/03/21 11:43:50;;;;;;;;;;;11.20;99.90;;;;;;5074772;28;20323;-69
2023/03/21 11:46:21;;;;;;;;;;;11.20;99.90;;;;;;5074320;28;19935;-68
2023/03/21 11:48:48;;;;;;;;;;;11.30;99.90;;;;;;5073977;28;19969;-70
2023/03/21 11:51:16;;;;;;;;;;;11.30;99.90;;;;;;5068048;28;19921;-74
2023/03/21 11:53:52;;;;;;;;;;;11.30;99.90;;;;;;5073920;28;19924;-69
2023/03/21 11:56:28;;;;;;;;;;;11.30;99.90;;;;;;5073859;28;19928;-71
2023/03/21 11:59:06;;;;;;;;;;;11.40;99.90;;;;;;5075595;28;20074;-71
2023/03/21 12:01:44;;;;;;;;;;;11.40;99.90;;;;;;5081565;28;19967;-70
2023/03/21 12:04:30;;;;;;;;;;;11.40;99.90;;;;;;5098403;28;19928;-69
2023/03/21 12:07:02;;;;;;;;;;;11.40;99.90;;;;;;5116644;28;19977;-70
2023/03/21 12:09:40;;;;;;;;;;;11.50;99.90;;;;;;5115831;28;19927;-69
2023/03/21 12:12:09;;;;;;;;;;;11.50;99.90;;;;;;5114160;28;19989;-69
2023/03/21 12:14:41;;;;;;;;;;;11.50;99.90;;;;;;5115730;28;20091;-69
2023/03/21 12:17:10;;;;;;;;;;;11.60;99.90;;;;;;5097886;28;19924;-70
2023/03/21 12:19:38;;;;;;;;;;;11.50;99.90;;;;;;5097406;28;19931;-70
2023/03/21 12:22:16;;;;;;;;;;;11.50;99.90;;;;;;5116100;28;20006;-70
2023/03/21 12:24:50;;;;;;;;;;;11.50;99.90;;;;;;5115956;28;20261;-69
2023/03/21 12:27:23;;;;;;;;;;;11.50;99.90;;;;;;5115572;28;19923;-74
2023/03/21 12:29:57;;;;;;;;;;;11.50;99.90;;;;;;5080680;28;20273;-70
2023/03/21 12:32:28;;;;;;;;;;;11.50;99.90;;;;;;5080298;28;19959;-74
2023/03/21 12:35:03;;;;;;;;;;;11.40;99.90;;;;;;5078842;28;19927;-71
2023/03/21 12:37:41;;;;;;;;;;;11.40;99.90;;;;;;5096885;28;19923;-74
2023/03/21 12:40:19;;;;;;;;;;;11.40;99.90;;;;;;5078323;28;19924;-71
2023/03/21 12:42:47;;;;;;;;;;;11.30;99.90;;;;;;5114736;28;19923;-70
2023/03/21 12:45:21;;;;;;;;;;;11.30;99.90;;;;;;5095330;28;20388;-71
2023/03/21 12:47:50;;;;;;;;;;;11.30;99.90;;;;;;5097411;28;20014;-71
2023/03/21 12:50:22;;;;;;;;;;;11.30;99.90;;;;;;5097378;28;19927;-71
2023/03/21 12:52:50;;;;;;;;;;;11.30;99.90;;;;;;5114995;28;19927;-72
2023/03/21 12:55:19;;;;;;;;;;;11.30;99.90;;;;;;5097045;28;20011;-71
2023/03/21 12:57:51;;;;;;;;;;;11.30;99.90;;;;;;5115247;28;20385;-71
2023/03/21 13:00:18;;;;;;;;;;;11.30;99.90;;;;;;5115391;28;19927;-71
2023/03/21 13:02:50;;;;;;;;;;;11.30;99.90;;;;;;5096385;28;19924;-70
2023/03/21 13:05:16;;;;;;;;;;;11.40;99.90;;;;;;5096657;28;20449;-70
2023/03/21 13:07:44;;;;;;;;;;;11.40;99.90;;;;;;5096724;28;19924;-71
2023/03/21 13:10:14;;;;;;;;;;;11.40;99.90;;;;;;5097119;28;20034;-71
2023/03/21 13:12:59;;;;;;;;;;;11.50;99.90;;;;;;5079787;28;19919;-70
2023/03/21 13:15:37;;;;;;;;;;;11.50;99.90;;;;;;5096675;28;19923;-71
2023/03/21 13:18:21;;;;;;;;;;;11.60;99.90;;;;;;5096827;28;19930;-71
2023/03/21 13:20:47;;;;;;;;;;;11.60;99.90;;;;;;5114793;28;19923;-71
2023/03/21 13:23:12;;;;;;;;;;;11.70;99.90;;;;;;5114505;28;20239;-68
2023/03/21 13:25:43;;;;;;;;;;;11.70;99.90;;;;;;5114418;28;19928;-69
2023/03/21 13:28:16;;;;;;;;;;;11.80;99.90;;;;;;5076990;28;19924;-70
2023/03/21 13:30:42;;;;;;;;;;;11.80;99.90;;;;;;5114373;28;20009;-70
2023/03/21 13:33:12;;;;;;;;;;;11.90;99.90;;;;;;5096074;28;20543;-69
2023/03/21 13:35:39;;;;;;;;;;;11.90;99.90;;;;;;5114407;28;19927;-71
2023/03/21 13:38:20;;;;;;;;;;;12.00;99.90;;;;;;5114607;28;19924;-69
2023/03/21 13:40:45;;;;;;;;;;;12.00;99.90;;;;;;5114123;28;20373;-68
2023/03/21 13:43:30;;;;;;;;;;;12.10;99.90;;;;;;5114005;28;19930;-70
2023/03/21 13:45:55;;;;;;;;;;;12.10;99.90;;;;;;5093468;28;19973;-69
2023/03/21 13:48:26;;;;;;;;;;;12.20;99.90;;;;;;5079149;28;19943;-70
2023/03/21 13:50:58;;;;;;;;;;;12.20;99.90;;;;;;5114182;28;20403;-70
2023/03/21 13:53:24;;;;;;;;;;;12.20;99.90;;;;;;5096269;28;20377;-73
2023/03/21 13:56:05;;;;;;;;;;;12.20;99.90;;;;;;5114199;28;19931;-69
2023/03/21 13:58:36;;;;;;;;;;;12.20;99.90;;;;;;5113681;28;19923;-69
2023/03/21 14:01:02;;;;;;;;;;;12.20;99.90;;;;;;5114069;28;19976;-70
2023/03/21 14:03:29;;;;;;;;;;;12.10;99.90;;;;;;5094806;28;19932;-70
2023/03/21 14:05:55;;;;;;;;;;;12.10;99.90;;;;;;5095452;28;19924;-68
2023/03/21 14:08:21;;;;;;;;;;;12.20;99.90;;;;;;5114032;28;20026;-68
2023/03/21 14:10:50;;;;;;;;;;;12.20;99.90;;;;;;5095062;28;19934;-68
2023/03/21 14:13:19;;;;;;;;;;;12.20;99.90;;;;;;5113847;28;19930;-68
2023/03/21 14:15:46;;;;;;;;;;;12.10;99.90;;;;;;5113396;28;19931;-68
2023/03/21 14:18:13;;;;;;;;;;;12.20;99.90;;;;;;5113578;28;19970;-68
2023/03/21 14:20:40;;;;;;;;;;;12.20;99.90;;;;;;5112645;28;20011;-69
2023/03/21 14:23:07;;;;;;;;;;;12.20;99.90;;;;;;5095265;28;19924;-69
2023/03/21 14:25:34;;;;;;;;;;;12.30;99.90;;;;;;5113202;28;20037;-68
2023/03/21 14:28:02;;;;;;;;;;;12.40;99.90;;;;;;5095740;28;19931;-69
2023/03/21 14:30:32;;;;;;;;;;;12.50;99.90;;;;;;5095082;28;20404;-71
2023/03/21 14:33:00;;;;;;;;;;;12.60;99.90;;;;;;5113389;28;20413;-69
2023/03/21 14:35:30;;;;;;;;;;;12.80;99.90;;;;;;5111468;28;20030;-69
2023/03/21 14:37:59;;;;;;;;;;;12.90;99.90;;;;;;5113435;28;19931;-68